Time;durP1;ratioP1;P1;durP2;ratioP2;P2;SDS_P1;SDS_P2;PMS_P1;PMS_P2;Temp;Humidity;BMP_temperature;BMP_pressure;BME280_temperature;BME280_humidity;BME280_pressure;Samples;Min_cycle;Max_cycle;Signal;HPM_P1;HPM_P2
2023/06/17 00:00:29;;;;;;;26.90;25.20;;;;;;;;;;5093961;28;20463;-80
2023/06/17 00:02:57;;;;;;;26.70;24.93;;;;;;;;;;5094396;28;20809;-80
2023/06/17 00:05:24;;;;;;;27.30;25.07;;;;;;;;;;5094838;28;20456;-84
2023/06/17 00:07:51;;;;;;;27.37;25.77;;;;;;;;;;5094068;28;20453;-82
2023/06/17 00:10:20;;;;;;;26.23;24.70;;;;;;;;;;5094211;28;20534;-83
2023/06/17 00:12:48;;;;;;;26.80;25.00;;;;;;;;;;5094256;28;20429;-82
2023/06/17 00:15:16;;;;;;;26.33;24.50;;;;;;;;;;5093845;28;20528;-82
2023/06/17 00:17:44;;;;;;;26.07;24.57;;;;;;;;;;5094510;28;20453;-82
2023/06/17 00:20:14;;;;;;;28.93;26.83;;;;;;;;;;5098490;28;20526;-82
2023/06/17 00:22:43;;;;;;;26.57;24.93;;;;;;;;;;5098553;28;20451;-82
2023/06/17 00:25:11;;;;;;;26.33;24.73;;;;;;;;;;5097564;28;20468;-83
2023/06/17 00:27:38;;;;;;;27.80;25.73;;;;;;;;;;5097829;28;20871;-82
2023/06/17 00:30:06;;;;;;;26.57;24.97;;;;;;;;;;5098234;28;20454;-81
2023/06/17 00:32:33;;;;;;;25.80;24.30;;;;;;;;;;5098034;28;20442;-80
2023/06/17 00:35:00;;;;;;;26.77;25.17;;;;;;;;;;5097580;28;20487;-83
2023/06/17 00:37:28;;;;;;;27.20;25.20;;;;;;;;;;5097597;28;20496;-82
2023/06/17 00:39:55;;;;;;;26.00;24.17;;;;;;;;;;5097580;28;20838;-83
2023/06/17 00:42:22;;;;;;;26.33;24.70;;;;;;;;;;5097993;28;20459;-83
2023/06/17 00:44:49;;;;;;;28.13;26.33;;;;;;;;;;5098072;28;20488;-82
2023/06/17 00:47:16;;;;;;;26.03;24.43;;;;;;;;;;5097687;28;20451;-82
2023/06/17 00:49:46;;;;;;;27.37;25.57;;;;;;;;;;5098106;28;20529;-83
2023/06/17 00:52:14;;;;;;;26.23;24.63;;;;;;;;;;5097946;28;20434;-84
2023/06/17 00:54:43;;;;;;;27.10;25.40;;;;;;;;;;5097178;28;20508;-83
2023/06/17 00:57:10;;;;;;;26.33;24.83;;;;;;;;;;5097464;28;20426;-83
2023/06/17 00:59:38;;;;;;;27.57;25.87;;;;;;;;;;5097866;28;20426;-82
2023/06/17 01:02:06;;;;;;;26.80;25.23;;;;;;;;;;5098603;28;20452;-82
2023/06/17 01:04:33;;;;;;;27.37;25.60;;;;;;;;;;5097685;28;20434;-82
2023/06/17 01:07:05;;;;;;;27.20;25.60;;;;;;;;;;5096603;28;20469;-82
2023/06/17 01:09:37;;;;;;;27.10;25.37;;;;;;;;;;5097684;28;20455;-81
2023/06/17 01:12:07;;;;;;;27.90;25.93;;;;;;;;;;5097374;28;20447;-82
2023/06/17 01:14:34;;;;;;;27.30;25.60;;;;;;;;;;5097417;28;20426;-82
2023/06/17 01:17:03;;;;;;;27.93;26.17;;;;;;;;;;5096447;28;20516;-82
2023/06/17 01:19:35;;;;;;;25.90;24.40;;;;;;;;;;5097150;28;20456;-82
2023/06/17 01:22:06;;;;;;;27.60;25.80;;;;;;;;;;5097542;28;20436;-82
2023/06/17 01:24:34;;;;;;;26.80;25.20;;;;;;;;;;5097468;28;20940;-82
2023/06/17 01:27:02;;;;;;;27.53;25.80;;;;;;;;;;5100533;28;20456;-82
2023/06/17 01:29:30;;;;;;;26.30;24.80;;;;;;;;;;5099165;28;20550;-81
2023/06/17 01:31:57;;;;;;;26.83;25.23;;;;;;;;;;5100459;28;20542;-82
2023/06/17 01:34:28;;;;;;;26.60;25.00;;;;;;;;;;5099663;28;20452;-82
2023/06/17 01:36:56;;;;;;;27.40;25.47;;;;;;;;;;5099473;28;20436;-81
2023/06/17 01:39:25;;;;;;;27.20;25.67;;;;;;;;;;5099018;28;20467;-82
2023/06/17 01:41:54;;;;;;;26.53;24.90;;;;;;;;;;5098854;28;20493;-83
2023/06/17 01:44:22;;;;;;;26.63;25.10;;;;;;;;;;5099584;28;20456;-83
2023/06/17 01:46:49;;;;;;;27.90;26.10;;;;;;;;;;5098072;28;20440;-82
2023/06/17 01:49:16;;;;;;;26.60;25.00;;;;;;;;;;5098371;28;20449;-83
2023/06/17 01:51:43;;;;;;;27.30;25.60;;;;;;;;;;5097281;28;20491;-82
2023/06/17 01:54:10;;;;;;;28.03;26.23;;;;;;;;;;5098326;28;20509;-83
2023/06/17 01:56:37;;;;;;;28.10;26.40;;;;;;;;;;5097662;28;20511;-82
2023/06/17 01:59:05;;;;;;;26.20;24.60;;;;;;;;;;5097730;28;20467;-81
2023/06/17 02:01:32;;;;;;;28.53;26.40;;;;;;;;;;5096774;28;20913;-82
2023/06/17 02:03:59;;;;;;;27.43;25.63;;;;;;;;;;5097833;28;20479;-83
2023/06/17 02:06:26;;;;;;;26.43;24.83;;;;;;;;;;5097235;28;20438;-83
2023/06/17 02:08:54;;;;;;;27.67;25.97;;;;;;;;;;5097598;28;20487;-82
2023/06/17 02:11:21;;;;;;;28.23;26.37;;;;;;;;;;5096613;28;20540;-83
2023/06/17 02:13:48;;;;;;;27.57;25.80;;;;;;;;;;5097003;28;20439;-83
2023/06/17 02:16:16;;;;;;;26.57;24.97;;;;;;;;;;5096522;28;20507;-82
2023/06/17 02:18:43;;;;;;;28.83;27.00;;;;;;;;;;5097582;28;20522;-83
2023/06/17 02:21:10;;;;;;;27.63;25.93;;;;;;;;;;5096328;28;20986;-82
2023/06/17 02:23:37;;;;;;;28.83;26.93;;;;;;;;;;5096837;28;20817;-84
2023/06/17 02:26:04;;;;;;;27.37;25.73;;;;;;;;;;5095768;28;20494;-83
2023/06/17 02:28:32;;;;;;;27.80;26.03;;;;;;;;;;5096790;28;20455;-82
2023/06/17 02:30:58;;;;;;;27.77;25.80;;;;;;;;;;5096518;28;20812;-82
2023/06/17 02:33:27;;;;;;;27.10;25.47;;;;;;;;;;5096226;28;20462;-82
2023/06/17 02:35:54;;;;;;;28.10;26.23;;;;;;;;;;5096130;28;20777;-82
2023/06/17 02:38:24;;;;;;;27.90;26.20;;;;;;;;;;5096521;28;20504;-82
2023/06/17 02:40:51;;;;;;;27.93;26.20;;;;;;;;;;5095496;28;20491;-82
2023/06/17 02:43:18;;;;;;;28.70;26.60;;;;;;;;;;5095406;28;20471;-83
2023/06/17 02:45:45;;;;;;;28.47;26.57;;;;;;;;;;5095664;28;20458;-83
2023/06/17 02:48:12;;;;;;;28.20;26.33;;;;;;;;;;5096877;28;20477;-81
2023/06/17 02:50:41;;;;;;;27.30;25.60;;;;;;;;;;5095820;28;20523;-82
2023/06/17 02:53:08;;;;;;;28.23;26.33;;;;;;;;;;5096238;28;20460;-82
2023/06/17 02:55:35;;;;;;;27.20;25.50;;;;;;;;;;5095171;28;20504;-81
2023/06/17 02:58:03;;;;;;;27.17;25.47;;;;;;;;;;5095930;28;20511;-81
2023/06/17 03:00:30;;;;;;;27.07;25.33;;;;;;;;;;5095557;28;20915;-82
2023/06/17 03:02:57;;;;;;;26.80;24.97;;;;;;;;;;5095537;28;20412;-81
2023/06/17 03:05:24;;;;;;;27.33;25.63;;;;;;;;;;5095356;28;20528;-81
2023/06/17 03:07:53;;;;;;;26.23;24.60;;;;;;;;;;5094601;28;20466;-81
2023/06/17 03:10:20;;;;;;;28.13;26.03;;;;;;;;;;5094940;28;20484;-80
2023/06/17 03:12:47;;;;;;;27.73;26.03;;;;;;;;;;5094905;28;20492;-81
2023/06/17 03:15:17;;;;;;;27.57;25.67;;;;;;;;;;5094909;28;20446;-80
2023/06/17 03:17:44;;;;;;;28.10;26.10;;;;;;;;;;5094461;28;20503;-79
2023/06/17 03:20:11;;;;;;;26.60;24.60;;;;;;;;;;5099202;28;20469;-79
2023/06/17 03:22:39;;;;;;;26.70;25.00;;;;;;;;;;5113871;28;20450;-79
2023/06/17 03:25:08;;;;;;;26.80;24.97;;;;;;;;;;5113616;28;20424;-79
2023/06/17 03:27:36;;;;;;;26.70;25.17;;;;;;;;;;5105811;28;20462;-82
2023/06/17 03:30:03;;;;;;;26.50;24.80;;;;;;;;;;5095776;28;20488;-82
2023/06/17 03:32:30;;;;;;;27.00;25.30;;;;;;;;;;5095673;28;20442;-81
2023/06/17 03:34:57;;;;;;;26.27;24.50;;;;;;;;;;5095822;28;20945;-81
2023/06/17 03:37:24;;;;;;;26.60;25.00;;;;;;;;;;5095594;28;20417;-81
2023/06/17 03:39:51;;;;;;;26.97;25.17;;;;;;;;;;5095194;28;20594;-83
2023/06/17 03:42:19;;;;;;;26.57;24.77;;;;;;;;;;5095407;28;20485;-83
2023/06/17 03:44:46;;;;;;;26.10;24.60;;;;;;;;;;5095764;28;20469;-81
2023/06/17 03:47:13;;;;;;;27.13;25.33;;;;;;;;;;5095022;28;20449;-81
2023/06/17 03:49:40;;;;;;;26.73;24.93;;;;;;;;;;5097418;28;20495;-81
2023/06/17 03:52:08;;;;;;;26.70;25.10;;;;;;;;;;5095675;28;21306;-83
2023/06/17 03:54:35;;;;;;;26.30;24.60;;;;;;;;;;5095857;28;20920;-82
2023/06/17 03:57:02;;;;;;;27.07;25.27;;;;;;;;;;5095060;28;20495;-82
2023/06/17 03:59:30;;;;;;;27.37;25.17;;;;;;;;;;5094756;28;20532;-83
2023/06/17 04:01:57;;;;;;;26.47;24.87;;;;;;;;;;5095089;28;20470;-83
2023/06/17 04:04:28;;;;;;;27.87;26.07;;;;;;;;;;5094973;28;20413;-83
2023/06/17 04:06:55;;;;;;;28.40;26.40;;;;;;;;;;5094429;28;20444;-82
2023/06/17 04:09:22;;;;;;;27.73;25.23;;;;;;;;;;5095175;28;20495;-83
2023/06/17 04:11:49;;;;;;;27.80;25.90;;;;;;;;;;5094584;28;20495;-80
2023/06/17 04:14:16;;;;;;;27.27;25.47;;;;;;;;;;5094933;28;20416;-81
2023/06/17 04:16:44;;;;;;;28.33;26.43;;;;;;;;;;5095010;28;20456;-81
2023/06/17 04:19:13;;;;;;;28.87;26.97;;;;;;;;;;5094764;28;20448;-81
2023/06/17 04:21:40;;;;;;;29.07;27.17;;;;;;;;;;5093972;28;20579;-81
2023/06/17 04:24:07;;;;;;;28.13;26.43;;;;;;;;;;5094738;28;20419;-83
2023/06/17 04:26:34;;;;;;;27.77;26.07;;;;;;;;;;5093882;28;20988;-83
2023/06/17 04:29:01;;;;;;;28.87;26.97;;;;;;;;;;5094818;28;20435;-81
2023/06/17 04:31:28;;;;;;;27.73;26.00;;;;;;;;;;5094362;28;20480;-81
2023/06/17 04:33:56;;;;;;;27.47;25.67;;;;;;;;;;5095320;28;20454;-81
2023/06/17 04:36:24;;;;;;;28.77;26.80;;;;;;;;;;5094496;28;20560;-81
2023/06/17 04:38:53;;;;;;;28.03;26.33;;;;;;;;;;5095120;28;20446;-82
2023/06/17 04:41:20;;;;;;;28.57;26.67;;;;;;;;;;5093907;28;20889;-80
2023/06/17 04:43:48;;;;;;;28.77;26.97;;;;;;;;;;5094611;28;20422;-80
2023/06/17 04:46:16;;;;;;;28.20;26.30;;;;;;;;;;5094002;28;20853;-81
2023/06/17 04:48:44;;;;;;;27.70;25.83;;;;;;;;;;5096651;28;20962;-81
2023/06/17 04:51:12;;;;;;;27.50;25.73;;;;;;;;;;5095128;28;20486;-81
2023/06/17 04:53:39;;;;;;;29.23;27.03;;;;;;;;;;5094966;28;20479;-81
2023/06/17 04:56:07;;;;;;;28.43;26.63;;;;;;;;;;5093986;28;20875;-81
2023/06/17 04:58:34;;;;;;;29.90;27.87;;;;;;;;;;5095086;28;20627;-80
2023/06/17 05:01:01;;;;;;;28.90;26.90;;;;;;;;;;5093726;28;20482;-81
2023/06/17 05:03:28;;;;;;;29.37;27.47;;;;;;;;;;5094147;28;20524;-80
2023/06/17 05:05:55;;;;;;;29.33;27.53;;;;;;;;;;5096103;28;20508;-82
2023/06/17 05:08:23;;;;;;;30.80;28.40;;;;;;;;;;5098030;28;20849;-81
2023/06/17 05:10:50;;;;;;;31.00;28.93;;;;;;;;;;5097813;28;20471;-80
2023/06/17 05:13:17;;;;;;;31.10;29.00;;;;;;;;;;5097295;28;20467;-81
2023/06/17 05:15:44;;;;;;;30.37;28.27;;;;;;;;;;5097341;28;20451;-80
2023/06/17 05:18:11;;;;;;;34.27;31.43;;;;;;;;;;5099251;28;20477;-81
2023/06/17 05:20:38;;;;;;;33.10;30.40;;;;;;;;;;5097577;28;20502;-81
2023/06/17 05:23:05;;;;;;;34.73;32.27;;;;;;;;;;5096905;28;20473;-81
2023/06/17 05:25:33;;;;;;;31.83;29.63;;;;;;;;;;5097275;28;20420;-83
2023/06/17 05:28:01;;;;;;;32.27;29.97;;;;;;;;;;5097722;28;20458;-80
2023/06/17 05:30:28;;;;;;;32.20;29.90;;;;;;;;;;5096835;28;21186;-79
2023/06/17 05:32:55;;;;;;;33.33;30.97;;;;;;;;;;5096998;28;20632;-80
2023/06/17 05:35:22;;;;;;;31.07;28.77;;;;;;;;;;5097370;28;20568;-81
2023/06/17 05:37:49;;;;;;;33.20;30.13;;;;;;;;;;5097369;28;20451;-81
2023/06/17 05:40:16;;;;;;;32.80;30.30;;;;;;;;;;5096831;28;20550;-80
2023/06/17 05:42:44;;;;;;;32.70;30.20;;;;;;;;;;5097351;28;20545;-81
2023/06/17 05:45:11;;;;;;;35.07;32.57;;;;;;;;;;5097155;28;20436;-81
2023/06/17 05:47:38;;;;;;;32.40;30.00;;;;;;;;;;5096208;28;20467;-80
2023/06/17 05:50:05;;;;;;;34.00;31.30;;;;;;;;;;5096810;28;20490;-81
2023/06/17 05:52:32;;;;;;;31.53;29.17;;;;;;;;;;5096663;28;20506;-81
2023/06/17 05:54:59;;;;;;;32.03;29.63;;;;;;;;;;5097636;28;20426;-81
2023/06/17 05:57:26;;;;;;;34.00;31.60;;;;;;;;;;5097403;28;20508;-80
2023/06/17 05:59:55;;;;;;;32.77;30.57;;;;;;;;;;5097545;28;20457;-81
2023/06/17 06:02:22;;;;;;;32.57;30.23;;;;;;;;;;5097669;28;20981;-81
2023/06/17 06:04:49;;;;;;;32.73;30.43;;;;;;;;;;5098020;28;20575;-80
2023/06/17 06:07:16;;;;;;;34.37;31.80;;;;;;;;;;5097701;28;20419;-81
2023/06/17 06:09:43;;;;;;;33.93;30.77;;;;;;;;;;5096600;28;20496;-82
2023/06/17 06:12:10;;;;;;;33.03;30.53;;;;;;;;;;5097936;28;20458;-82
2023/06/17 06:14:37;;;;;;;34.90;32.30;;;;;;;;;;5097793;28;20451;-81
2023/06/17 06:17:06;;;;;;;33.17;30.67;;;;;;;;;;5096526;28;20455;-80
2023/06/17 06:19:33;;;;;;;34.27;31.57;;;;;;;;;;5096723;28;20500;-81
2023/06/17 06:21:59;;;;;;;33.37;30.77;;;;;;;;;;5096859;28;20484;-81
2023/06/17 06:24:26;;;;;;;35.37;32.57;;;;;;;;;;5098144;28;20931;-80
2023/06/17 06:26:53;;;;;;;34.93;32.17;;;;;;;;;;5096406;28;20415;-81
2023/06/17 06:29:20;;;;;;;33.90;31.40;;;;;;;;;;5096510;28;20485;-80
2023/06/17 06:31:47;;;;;;;34.37;31.67;;;;;;;;;;5088924;28;20446;-80
2023/06/17 06:34:16;;;;;;;32.70;30.30;;;;;;;;;;5076485;28;20453;-80
2023/06/17 06:36:43;;;;;;;34.77;32.10;;;;;;;;;;5075049;28;20515;-82
2023/06/17 06:39:10;;;;;;;32.00;29.60;;;;;;;;;;5075707;28;20523;-81
2023/06/17 06:41:37;;;;;;;34.50;32.00;;;;;;;;;;5078090;28;20471;-82
2023/06/17 06:44:04;;;;;;;34.87;32.27;;;;;;;;;;5076447;28;20453;-81
2023/06/17 06:46:33;;;;;;;34.33;31.43;;;;;;;;;;5076052;28;20446;-81
2023/06/17 06:49:00;;;;;;;32.57;30.07;;;;;;;;;;5076343;28;20478;-81
2023/06/17 06:51:28;;;;;;;32.17;29.87;;;;;;;;;;5075910;28;20448;-82
2023/06/17 06:53:55;;;;;;;32.33;30.00;;;;;;;;;;5076026;28;20412;-82
2023/06/17 06:56:22;;;;;;;31.80;29.50;;;;;;;;;;5074788;28;20524;-80
2023/06/17 06:58:49;;;;;;;31.07;28.70;;;;;;;;;;5075685;28;20431;-81
2023/06/17 07:01:16;;;;;;;31.87;29.67;;;;;;;;;;5074928;28;20970;-80
2023/06/17 07:03:44;;;;;;;31.70;29.50;;;;;;;;;;5075404;28;20478;-81
2023/06/17 07:06:11;;;;;;;31.53;28.77;;;;;;;;;;5074975;28;20423;-80
2023/06/17 07:08:39;;;;;;;32.03;29.63;;;;;;;;;;5074671;28;20473;-81
2023/06/17 07:11:06;;;;;;;32.87;30.33;;;;;;;;;;5075027;28;20450;-81
2023/06/17 07:13:33;;;;;;;32.70;29.90;;;;;;;;;;5074551;28;20424;-81
2023/06/17 07:16:00;;;;;;;31.10;28.77;;;;;;;;;;5074502;28;20453;-81
2023/06/17 07:18:27;;;;;;;31.53;29.13;;;;;;;;;;5075290;28;20443;-83
2023/06/17 07:20:54;;;;;;;31.50;29.37;;;;;;;;;;5074439;28;20889;-82
2023/06/17 07:23:21;;;;;;;28.40;26.30;;;;;;;;;;5075208;28;20886;-79
2023/06/17 07:25:50;;;;;;;30.17;27.77;;;;;;;;;;5074233;28;20431;-81
2023/06/17 07:28:17;;;;;;;29.93;27.97;;;;;;;;;;5074405;28;20431;-81
2023/06/17 07:30:44;;;;;;;30.53;28.53;;;;;;;;;;5073994;28;20448;-81
2023/06/17 07:33:11;;;;;;;32.13;29.73;;;;;;;;;;5075008;28;20458;-82
2023/06/17 07:35:38;;;;;;;32.07;29.63;;;;;;;;;;5074139;28;20479;-80
2023/06/17 07:38:05;;;;;;;33.13;30.93;;;;;;;;;;5075188;28;20456;-81
2023/06/17 07:40:33;;;;;;;32.37;29.77;;;;;;;;;;5073977;28;20588;-80
2023/06/17 07:43:01;;;;;;;32.90;30.30;;;;;;;;;;5074775;28;20456;-86
2023/06/17 07:45:28;;;;;;;32.43;30.03;;;;;;;;;;5073744;28;20446;-79
2023/06/17 07:47:55;;;;;;;31.53;29.27;;;;;;;;;;5073410;28;20424;-77
2023/06/17 07:50:22;;;;;;;31.03;28.80;;;;;;;;;;5073161;28;20444;-78
2023/06/17 07:52:50;;;;;;;30.47;28.40;;;;;;;;;;5072303;28;21010;-77
2023/06/17 07:55:17;;;;;;;30.20;28.17;;;;;;;;;;5073999;28;20499;-76
2023/06/17 07:57:44;;;;;;;31.30;29.10;;;;;;;;;;5073595;28;20420;-80
2023/06/17 08:00:14;;;;;;;31.60;29.50;;;;;;;;;;5074279;28;20473;-81
2023/06/17 08:02:41;;;;;;;30.97;28.70;;;;;;;;;;5073095;28;20448;-78
2023/06/17 08:05:08;;;;;;;31.00;28.90;;;;;;;;;;5074310;28;20427;-78
2023/06/17 08:07:35;;;;;;;30.20;28.00;;;;;;;;;;5073656;28;20428;-77
2023/06/17 08:10:03;;;;;;;30.00;28.00;;;;;;;;;;5074544;28;21242;-77
2023/06/17 08:12:29;;;;;;;30.93;28.90;;;;;;;;;;5085488;28;20488;-78
2023/06/17 08:14:56;;;;;;;29.83;27.83;;;;;;;;;;5085005;28;20454;-78
2023/06/17 08:17:25;;;;;;;29.90;27.87;;;;;;;;;;5091275;28;20420;-78
2023/06/17 08:19:52;;;;;;;31.77;29.77;;;;;;;;;;5074587;28;20834;-78
2023/06/17 08:22:20;;;;;;;29.23;27.43;;;;;;;;;;5074546;28;20533;-78
2023/06/17 08:24:47;;;;;;;30.67;28.47;;;;;;;;;;5074500;28;20454;-76
2023/06/17 08:27:14;;;;;;;31.60;29.50;;;;;;;;;;5072303;28;20479;-80
2023/06/17 08:29:41;;;;;;;30.50;28.50;;;;;;;;;;5072364;28;20479;-76
2023/06/17 08:32:08;;;;;;;30.70;28.50;;;;;;;;;;5072192;28;20934;-76
2023/06/17 08:34:36;;;;;;;30.47;28.37;;;;;;;;;;5074281;28;20451;-78
2023/06/17 08:37:05;;;;;;;30.60;28.30;;;;;;;;;;5073195;28;20496;-77
2023/06/17 08:39:32;;;;;;;30.87;28.57;;;;;;;;;;5075356;28;20482;-78
2023/06/17 08:41:59;;;;;;;32.90;30.50;;;;;;;;;;5077833;28;20452;-80
2023/06/17 08:44:27;;;;;;;31.23;28.97;;;;;;;;;;5077707;28;20849;-79
2023/06/17 08:46:54;;;;;;;31.30;28.90;;;;;;;;;;5076654;28;20547;-78
2023/06/17 08:49:23;;;;;;;30.30;28.27;;;;;;;;;;5077794;28;20466;-77
2023/06/17 08:51:52;;;;;;;29.93;27.90;;;;;;;;;;5077877;28;20967;-78
2023/06/17 08:54:20;;;;;;;30.43;28.27;;;;;;;;;;5077908;28;20437;-78
2023/06/17 08:56:47;;;;;;;29.93;27.93;;;;;;;;;;5077603;28;20453;-78
2023/06/17 08:59:14;;;;;;;29.63;27.53;;;;;;;;;;5077964;28;20471;-78
2023/06/17 09:01:43;;;;;;;28.90;27.00;;;;;;;;;;5077540;28;20444;-78
2023/06/17 09:04:11;;;;;;;28.57;26.47;;;;;;;;;;5077509;28;20445;-78
2023/06/17 09:06:38;;;;;;;29.00;26.90;;;;;;;;;;5076884;28;20458;-78
2023/06/17 09:09:06;;;;;;;30.90;28.70;;;;;;;;;;5077287;28;20432;-78
2023/06/17 09:11:33;;;;;;;29.57;27.77;;;;;;;;;;5076903;28;20868;-78
2023/06/17 09:14:01;;;;;;;29.83;27.83;;;;;;;;;;5076948;28;20413;-79
2023/06/17 09:16:29;;;;;;;29.53;27.23;;;;;;;;;;5076256;28;21008;-78
2023/06/17 09:18:56;;;;;;;29.63;27.67;;;;;;;;;;5076466;28;20457;-78
2023/06/17 09:21:24;;;;;;;29.40;27.30;;;;;;;;;;5076984;28;20448;-77
2023/06/17 09:23:55;;;;;;;28.97;27.00;;;;;;;;;;5076941;28;20494;-78
2023/06/17 09:26:27;;;;;;;28.53;26.53;;;;;;;;;;5076391;28;20480;-78
2023/06/17 09:28:54;;;;;;;28.23;26.30;;;;;;;;;;5076896;28;20413;-78
2023/06/17 09:31:21;;;;;;;28.40;26.60;;;;;;;;;;5076456;28;20535;-78
2023/06/17 09:33:48;;;;;;;28.30;26.40;;;;;;;;;;5076395;28;20449;-78
2023/06/17 09:36:15;;;;;;;27.37;25.67;;;;;;;;;;5075091;28;20461;-77
2023/06/17 09:38:43;;;;;;;29.07;26.97;;;;;;;;;;5076401;28;20453;-80
2023/06/17 09:41:14;;;;;;;29.67;27.47;;;;;;;;;;5077154;28;20468;-77
2023/06/17 09:43:43;;;;;;;29.00;27.00;;;;;;;;;;5076136;28;20445;-78
2023/06/17 09:46:11;;;;;;;28.73;26.73;;;;;;;;;;5075394;28;20449;-78
2023/06/17 09:48:39;;;;;;;29.17;27.17;;;;;;;;;;5077697;28;20452;-79
2023/06/17 09:51:09;;;;;;;29.90;27.90;;;;;;;;;;5076210;28;20989;-78
2023/06/17 09:53:36;;;;;;;29.40;27.40;;;;;;;;;;5077842;28;20431;-77
2023/06/17 09:56:04;;;;;;;28.43;26.53;;;;;;;;;;5077559;28;20424;-83
2023/06/17 09:58:32;;;;;;;28.00;26.10;;;;;;;;;;5080379;28;20450;-80
2023/06/17 10:01:05;;;;;;;28.43;26.53;;;;;;;;;;5079105;28;20500;-79
2023/06/17 10:03:32;;;;;;;28.97;26.87;;;;;;;;;;5079537;28;20444;-80
2023/06/17 10:06:03;;;;;;;26.90;25.20;;;;;;;;;;5079090;28;20474;-78
2023/06/17 10:08:30;;;;;;;28.60;26.50;;;;;;;;;;5079497;28;20458;-79
2023/06/17 10:10:59;;;;;;;27.33;25.50;;;;;;;;;;5078406;28;20501;-81
2023/06/17 10:13:27;;;;;;;29.03;27.03;;;;;;;;;;5078446;28;20409;-79
2023/06/17 10:15:54;;;;;;;28.73;26.83;;;;;;;;;;5078158;28;20492;-80
2023/06/17 10:18:23;;;;;;;29.07;27.17;;;;;;;;;;5078468;28;20856;-81
2023/06/17 10:20:52;;;;;;;30.50;28.23;;;;;;;;;;5079955;28;20448;-78
2023/06/17 10:23:21;;;;;;;28.03;26.20;;;;;;;;;;5083570;28;20462;-79
2023/06/17 10:25:48;;;;;;;28.97;27.07;;;;;;;;;;5078847;28;21205;-79
2023/06/17 10:28:15;;;;;;;28.30;26.50;;;;;;;;;;5078784;28;20453;-79
2023/06/17 10:30:44;;;;;;;27.37;25.40;;;;;;;;;;5078365;28;20498;-81
2023/06/17 10:33:11;;;;;;;29.70;26.80;;;;;;;;;;5078383;28;20463;-80
2023/06/17 10:35:40;;;;;;;29.07;27.00;;;;;;;;;;5078802;28;20483;-79
2023/06/17 10:38:09;;;;;;;29.13;27.20;;;;;;;;;;5078823;28;20454;-80
2023/06/17 10:40:52;;;;;;;28.20;26.20;;;;;;;;;;5080263;28;20474;-80
2023/06/17 10:43:20;;;;;;;27.60;25.77;;;;;;;;;;5084308;28;20520;-81
2023/06/17 10:45:50;;;;;;;27.37;25.67;;;;;;;;;;5088074;28;20536;-79
2023/06/17 10:48:18;;;;;;;27.07;25.37;;;;;;;;;;5091479;28;20967;-80
2023/06/17 10:50:47;;;;;;;27.07;25.17;;;;;;;;;;5089715;28;20474;-79
2023/06/17 10:53:16;;;;;;;28.20;26.20;;;;;;;;;;5075542;28;20437;-79
2023/06/17 10:55:43;;;;;;;28.33;26.43;;;;;;;;;;5075124;28;20946;-78
2023/06/17 10:58:10;;;;;;;28.47;26.57;;;;;;;;;;5075495;28;20909;-78
2023/06/17 11:00:39;;;;;;;28.93;27.03;;;;;;;;;;5076957;28;20444;-86
2023/06/17 11:03:06;;;;;;;28.63;26.73;;;;;;;;;;5076325;28;20489;-79
2023/06/17 11:05:35;;;;;;;28.27;26.47;;;;;;;;;;5075136;28;20476;-80
2023/06/17 11:08:04;;;;;;;29.10;27.27;;;;;;;;;;5074972;28;20456;-79
2023/06/17 11:10:32;;;;;;;27.80;26.03;;;;;;;;;;5075211;28;20445;-79
2023/06/17 11:12:59;;;;;;;26.37;24.77;;;;;;;;;;5075658;28;20436;-79
2023/06/17 11:15:26;;;;;;;27.27;25.57;;;;;;;;;;5075230;28;20478;-80
2023/06/17 11:18:02;;;;;;;26.27;24.47;;;;;;;;;;5075143;28;20451;-78
2023/06/17 11:20:29;;;;;;;27.20;25.50;;;;;;;;;;5074375;28;20486;-80
2023/06/17 11:22:56;;;;;;;27.57;25.77;;;;;;;;;;5075011;28;20798;-80
2023/06/17 11:25:25;;;;;;;30.40;28.30;;;;;;;;;;5074805;28;20482;-80
2023/06/17 11:27:52;;;;;;;27.67;25.77;;;;;;;;;;5074051;28;20420;-79
2023/06/17 11:30:19;;;;;;;27.10;25.40;;;;;;;;;;5074489;28;20498;-79
2023/06/17 11:32:46;;;;;;;27.73;25.93;;;;;;;;;;5073831;28;20438;-79
2023/06/17 11:35:14;;;;;;;28.10;26.30;;;;;;;;;;5074139;28;20420;-80
2023/06/17 11:37:42;;;;;;;28.27;26.27;;;;;;;;;;5072556;28;20478;-78
2023/06/17 11:40:11;;;;;;;27.33;25.53;;;;;;;;;;5073939;28;20448;-79
2023/06/17 11:42:40;;;;;;;27.27;25.57;;;;;;;;;;5073169;28;20424;-83
2023/06/17 11:45:08;;;;;;;27.23;25.43;;;;;;;;;;5075478;28;20461;-83
2023/06/17 11:47:36;;;;;;;27.60;25.70;;;;;;;;;;5074561;28;20435;-83
2023/06/17 11:50:05;;;;;;;27.60;25.77;;;;;;;;;;5075025;28;20463;-82
2023/06/17 11:52:32;;;;;;;29.57;27.37;;;;;;;;;;5075310;28;20419;-78
2023/06/17 11:54:59;;;;;;;27.60;25.80;;;;;;;;;;5073819;28;20504;-78
2023/06/17 11:57:27;;;;;;;28.47;26.57;;;;;;;;;;5072907;28;20427;-77
2023/06/17 11:59:59;;;;;;;27.53;25.83;;;;;;;;;;5073114;28;21361;-78
2023/06/17 12:02:28;;;;;;;27.80;25.90;;;;;;;;;;5073348;28;20412;-84
2023/06/17 12:04:55;;;;;;;28.43;26.53;;;;;;;;;;5075920;28;20510;-83
2023/06/17 12:07:22;;;;;;;28.27;26.50;;;;;;;;;;5075136;28;20824;-80
2023/06/17 12:09:53;;;;;;;27.70;25.80;;;;;;;;;;5077152;28;20480;-79
2023/06/17 12:12:28;;;;;;;28.47;26.67;;;;;;;;;;5076535;28;20432;-80
2023/06/17 12:15:00;;;;;;;28.40;26.60;;;;;;;;;;5078341;28;20445;-79
2023/06/17 12:17:27;;;;;;;27.77;25.77;;;;;;;;;;5080014;28;20450;-81
2023/06/17 12:20:00;;;;;;;27.47;25.60;;;;;;;;;;5079175;28;20555;-79
2023/06/17 12:22:27;;;;;;;27.53;25.47;;;;;;;;;;5078717;28;20397;-79
2023/06/17 12:24:54;;;;;;;28.57;26.67;;;;;;;;;;5078418;28;20485;-79
2023/06/17 12:27:28;;;;;;;27.93;26.10;;;;;;;;;;5079611;28;20789;-79
2023/06/17 12:29:55;;;;;;;26.93;25.23;;;;;;;;;;5079330;28;20471;-80
2023/06/17 12:32:23;;;;;;;28.47;26.57;;;;;;;;;;5079223;28;20480;-78
2023/06/17 12:34:51;;;;;;;28.47;26.60;;;;;;;;;;5076547;28;20472;-80
2023/06/17 12:37:21;;;;;;;28.90;26.83;;;;;;;;;;5076677;28;20419;-81
2023/06/17 12:39:48;;;;;;;27.73;25.93;;;;;;;;;;5076274;28;20474;-80
2023/06/17 12:42:17;;;;;;;28.03;25.93;;;;;;;;;;5076818;28;20449;-80
2023/06/17 12:44:44;;;;;;;28.07;26.30;;;;;;;;;;5076079;28;20472;-81
2023/06/17 12:47:11;;;;;;;29.10;27.10;;;;;;;;;;5076382;28;20435;-81
2023/06/17 12:49:40;;;;;;;28.30;26.47;;;;;;;;;;5083101;28;20469;-83
2023/06/17 12:52:07;;;;;;;27.47;25.67;;;;;;;;;;5089909;28;20540;-82
2023/06/17 12:54:34;;;;;;;28.57;26.57;;;;;;;;;;5080454;28;20424;-81
2023/06/17 12:57:01;;;;;;;28.00;26.27;;;;;;;;;;5076481;28;20444;-82
2023/06/17 12:59:28;;;;;;;27.60;25.70;;;;;;;;;;5076612;28;20499;-80
2023/06/17 13:01:55;;;;;;;29.20;27.30;;;;;;;;;;5076743;28;20453;-80
2023/06/17 13:04:22;;;;;;;28.20;26.40;;;;;;;;;;5076117;28;21106;-81
2023/06/17 13:06:50;;;;;;;28.60;26.80;;;;;;;;;;5075690;28;20828;-80
2023/06/17 13:09:17;;;;;;;30.53;28.30;;;;;;;;;;5075681;28;20960;-80
2023/06/17 13:11:44;;;;;;;27.57;25.87;;;;;;;;;;5076008;28;20470;-80
2023/06/17 13:14:11;;;;;;;29.23;27.33;;;;;;;;;;5076377;28;20470;-80
2023/06/17 13:16:40;;;;;;;30.13;28.23;;;;;;;;;;5075677;28;20412;-79
2023/06/17 13:19:08;;;;;;;29.67;27.67;;;;;;;;;;5075858;28;20567;-81
2023/06/17 13:21:35;;;;;;;28.80;26.90;;;;;;;;;;5079607;28;20470;-82
2023/06/17 13:24:03;;;;;;;31.70;29.40;;;;;;;;;;5081110;28;20474;-82
2023/06/17 13:26:32;;;;;;;32.40;30.07;;;;;;;;;;5076890;28;20776;-83
2023/06/17 13:28:59;;;;;;;30.53;28.33;;;;;;;;;;5076571;28;20818;-86
2023/06/17 13:31:26;;;;;;;30.60;28.60;;;;;;;;;;5076253;28;20489;-82
2023/06/17 13:33:53;;;;;;;31.40;29.30;;;;;;;;;;5075800;28;20421;-81
2023/06/17 13:36:20;;;;;;;31.47;29.37;;;;;;;;;;5075592;28;20424;-82
2023/06/17 13:38:47;;;;;;;30.00;28.10;;;;;;;;;;5076341;28;20485;-82
2023/06/17 13:41:16;;;;;;;30.53;28.60;;;;;;;;;;5075352;28;20520;-82
2023/06/17 13:43:43;;;;;;;30.47;28.47;;;;;;;;;;5076419;28;20479;-82
2023/06/17 13:46:10;;;;;;;30.90;28.87;;;;;;;;;;5075931;28;20828;-82
2023/06/17 13:48:37;;;;;;;30.90;28.80;;;;;;;;;;5076178;28;20432;-82
2023/06/17 13:51:05;;;;;;;29.70;27.77;;;;;;;;;;5075799;28;20518;-82
2023/06/17 13:53:32;;;;;;;30.20;28.20;;;;;;;;;;5076245;28;20442;-82
2023/06/17 13:55:59;;;;;;;30.17;28.07;;;;;;;;;;5074948;28;21282;-82
2023/06/17 13:58:27;;;;;;;29.80;27.60;;;;;;;;;;5076480;28;20442;-81
2023/06/17 14:00:55;;;;;;;30.70;28.43;;;;;;;;;;5076411;28;20845;-81
2023/06/17 14:03:22;;;;;;;30.27;28.27;;;;;;;;;;5076433;28;20428;-82
2023/06/17 14:05:49;;;;;;;30.40;28.30;;;;;;;;;;5076630;28;20805;-86
2023/06/17 14:08:16;;;;;;;30.80;28.60;;;;;;;;;;5080676;28;20429;-85
2023/06/17 14:10:43;;;;;;;28.40;26.40;;;;;;;;;;5080101;28;20543;-85
2023/06/17 14:13:25;;;;;;;30.10;28.10;;;;;;;;;;5081147;28;20474;-84
2023/06/17 14:15:55;;;;;;;30.50;28.40;;;;;;;;;;5073688;28;20475;-84
2023/06/17 14:18:22;;;;;;;29.87;27.90;;;;;;;;;;5076379;28;20437;-84